Time;durP1;ratioP1;P1;durP2;ratioP2;P2;SDS_P1;SDS_P2;PMS_P1;PMS_P2;Temp;Humidity;BMP_temperature;BMP_pressure;BME280_temperature;BME280_humidity;BME280_pressure;Samples;Min_cycle;Max_cycle;Signal;HPM_P1;HPM_P2
2023/04/17 00:02:01;;;;;;;;;;;8.00;99.90;;;;;;5089201;28;19925;-79
2023/04/17 00:04:27;;;;;;;;;;;8.00;99.90;;;;;;5090275;28;20350;-79
2023/04/17 00:06:53;;;;;;;;;;;8.00;99.90;;;;;;5058431;28;19951;-79
2023/04/17 00:09:18;;;;;;;;;;;8.00;99.90;;;;;;5093007;28;19924;-79
2023/04/17 00:11:44;;;;;;;;;;;8.00;99.90;;;;;;5059107;28;19939;-79
2023/04/17 00:14:09;;;;;;;;;;;8.10;99.90;;;;;;5075734;28;20017;-80
2023/04/17 00:16:35;;;;;;;;;;;8.10;99.90;;;;;;5080483;28;19936;-79
2023/04/17 00:19:00;;;;;;;;;;;8.10;99.90;;;;;;5077987;28;19947;-79
2023/04/17 00:21:28;;;;;;;;;;;8.10;99.90;;;;;;5091418;28;19925;-79
2023/04/17 00:23:54;;;;;;;;;;;8.10;99.90;;;;;;5075944;28;19930;-79
2023/04/17 00:26:19;;;;;;;;;;;8.10;99.90;;;;;;5076578;28;20022;-79
2023/04/17 00:28:46;;;;;;;;;;;8.00;99.90;;;;;;5078600;28;19924;-79
2023/04/17 00:31:12;;;;;;;;;;;8.00;99.90;;;;;;5076634;28;19936;-79
2023/04/17 00:33:37;;;;;;;;;;;8.00;99.90;;;;;;5074124;28;19929;-79
2023/04/17 00:36:03;;;;;;;;;;;8.00;99.90;;;;;;5075799;28;19970;-79
2023/04/17 00:38:29;;;;;;;;;;;8.10;99.90;;;;;;5070496;28;19970;-79
2023/04/17 00:40:54;;;;;;;;;;;8.10;99.90;;;;;;5075786;28;19944;-79
2023/04/17 00:43:20;;;;;;;;;;;8.00;99.90;;;;;;5093363;28;19928;-79
2023/04/17 00:45:46;;;;;;;;;;;8.00;99.90;;;;;;5092141;28;19924;-79
2023/04/17 00:48:13;;;;;;;;;;;8.10;99.90;;;;;;5091181;28;19931;-79
2023/04/17 00:50:38;;;;;;;;;;;8.10;99.90;;;;;;5090203;28;19925;-79
2023/04/17 00:53:04;;;;;;;;;;;8.00;99.90;;;;;;5057912;28;19928;-79
2023/04/17 00:55:31;;;;;;;;;;;8.10;99.90;;;;;;5074771;28;19931;-79
2023/04/17 00:57:57;;;;;;;;;;;8.10;99.90;;;;;;5044432;28;19925;-79
2023/04/17 01:00:23;;;;;;;;;;;8.10;99.90;;;;;;5076707;28;19971;-79
2023/04/17 01:02:49;;;;;;;;;;;8.10;99.90;;;;;;5087271;28;19933;-79
2023/04/17 01:05:14;;;;;;;;;;;8.10;99.90;;;;;;5094347;28;20534;-79
2023/04/17 01:07:40;;;;;;;;;;;8.10;99.90;;;;;;5059789;28;20445;-79
2023/04/17 01:10:06;;;;;;;;;;;8.10;99.90;;;;;;5076216;28;19970;-79
2023/04/17 01:12:32;;;;;;;;;;;8.10;99.90;;;;;;5070003;28;19928;-79
2023/04/17 01:14:57;;;;;;;;;;;8.10;99.90;;;;;;5075034;28;19928;-79
2023/04/17 01:17:26;;;;;;;;;;;8.20;99.90;;;;;;5077295;28;19937;-79
2023/04/17 01:19:52;;;;;;;;;;;8.20;99.90;;;;;;5093043;28;19963;-79
2023/04/17 01:22:20;;;;;;;;;;;8.10;99.90;;;;;;5076803;28;19950;-80
2023/04/17 01:24:46;;;;;;;;;;;8.10;99.90;;;;;;5092650;28;20520;-79
2023/04/17 01:27:12;;;;;;;;;;;8.10;99.90;;;;;;5093886;28;19928;-79
2023/04/17 01:29:38;;;;;;;;;;;8.10;99.90;;;;;;5065040;28;20561;-79
2023/04/17 01:32:04;;;;;;;;;;;8.10;99.90;;;;;;5066011;28;20007;-79
2023/04/17 01:34:30;;;;;;;;;;;8.10;99.90;;;;;;5073590;28;19943;-79
2023/04/17 01:36:55;;;;;;;;;;;8.10;99.90;;;;;;5089907;28;19972;-80
2023/04/17 01:39:21;;;;;;;;;;;8.20;99.90;;;;;;5076432;28;19928;-79
2023/04/17 01:41:46;;;;;;;;;;;8.10;99.90;;;;;;5071579;28;19996;-79
2023/04/17 01:44:12;;;;;;;;;;;8.10;99.90;;;;;;5090946;28;19940;-79
2023/04/17 01:46:38;;;;;;;;;;;8.00;99.90;;;;;;5091060;28;19939;-79
2023/04/17 01:49:03;;;;;;;;;;;8.10;99.90;;;;;;5076478;28;19929;-79
2023/04/17 01:51:30;;;;;;;;;;;8.10;99.90;;;;;;5091108;28;20027;-79
2023/04/17 01:53:55;;;;;;;;;;;8.10;99.90;;;;;;5091416;28;19928;-79
2023/04/17 01:56:21;;;;;;;;;;;8.10;99.90;;;;;;5075882;28;19931;-79
2023/04/17 01:58:47;;;;;;;;;;;8.10;99.90;;;;;;5042791;28;19925;-80
2023/04/17 02:01:12;;;;;;;;;;;8.10;99.90;;;;;;5092851;28;20480;-79
2023/04/17 02:03:38;;;;;;;;;;;8.00;99.90;;;;;;5066113;28;19924;-79
2023/04/17 02:06:04;;;;;;;;;;;8.00;99.90;;;;;;5059105;28;19947;-79
2023/04/17 02:08:29;;;;;;;;;;;8.10;99.90;;;;;;5075072;28;19947;-79
2023/04/17 02:10:55;;;;;;;;;;;8.10;99.90;;;;;;5090278;28;19925;-79
2023/04/17 02:13:20;;;;;;;;;;;8.00;99.90;;;;;;5084832;28;20391;-79
2023/04/17 02:15:46;;;;;;;;;;;8.00;99.90;;;;;;5062455;28;19970;-79
2023/04/17 02:18:12;;;;;;;;;;;8.00;99.90;;;;;;5076257;28;19932;-79
2023/04/17 02:20:37;;;;;;;;;;;8.10;99.90;;;;;;5057083;28;19929;-79
2023/04/17 02:23:04;;;;;;;;;;;8.00;99.90;;;;;;5065522;28;19971;-79
2023/04/17 02:25:30;;;;;;;;;;;8.10;99.90;;;;;;5073910;28;19925;-79
2023/04/17 02:27:56;;;;;;;;;;;8.10;99.90;;;;;;5051551;28;20337;-79
2023/04/17 02:30:22;;;;;;;;;;;8.10;99.90;;;;;;5055099;28;19924;-79
2023/04/17 02:32:51;;;;;;;;;;;8.10;99.90;;;;;;5044060;28;19978;-79
2023/04/17 02:35:19;;;;;;;;;;;8.10;99.90;;;;;;5057993;28;20323;-79
2023/04/17 02:37:45;;;;;;;;;;;8.10;99.90;;;;;;5089832;28;19988;-79
2023/04/17 02:40:11;;;;;;;;;;;8.10;99.90;;;;;;5091365;28;19974;-79
2023/04/17 02:42:36;;;;;;;;;;;8.10;99.90;;;;;;5080240;28;19950;-79
2023/04/17 02:45:03;;;;;;;;;;;8.10;99.90;;;;;;5078830;28;19924;-79
2023/04/17 02:47:29;;;;;;;;;;;8.10;99.90;;;;;;5076960;28;19931;-78
2023/04/17 02:49:55;;;;;;;;;;;8.10;99.90;;;;;;5061930;28;19932;-78
2023/04/17 02:52:21;;;;;;;;;;;8.10;99.90;;;;;;5096400;28;19929;-78
2023/04/17 02:54:46;;;;;;;;;;;8.10;99.90;;;;;;5081706;28;19924;-79
2023/04/17 02:57:12;;;;;;;;;;;8.10;99.90;;;;;;5047296;28;19936;-79
2023/04/17 02:59:38;;;;;;;;;;;8.10;99.90;;;;;;5059238;28;19925;-79
2023/04/17 03:02:04;;;;;;;;;;;8.10;99.90;;;;;;5079251;28;19968;-79
2023/04/17 03:04:29;;;;;;;;;;;8.10;99.90;;;;;;5095587;28;19928;-78
2023/04/17 03:06:55;;;;;;;;;;;8.10;99.90;;;;;;5078806;28;20362;-78
2023/04/17 03:09:22;;;;;;;;;;;8.10;99.90;;;;;;5082630;28;19928;-78
2023/04/17 03:11:48;;;;;;;;;;;8.10;99.90;;;;;;5095065;28;19974;-79
2023/04/17 03:14:14;;;;;;;;;;;8.10;99.90;;;;;;5071459;28;19925;-78
2023/04/17 03:16:39;;;;;;;;;;;8.10;99.90;;;;;;5087752;28;19928;-78
2023/04/17 03:19:05;;;;;;;;;;;8.10;99.90;;;;;;5070111;28;19979;-79
2023/04/17 03:21:31;;;;;;;;;;;8.20;99.90;;;;;;5061965;28;19928;-78
2023/04/17 03:23:56;;;;;;;;;;;8.20;99.90;;;;;;5063531;28;19925;-79
2023/04/17 03:26:22;;;;;;;;;;;8.20;99.90;;;;;;5085852;28;19931;-78
2023/04/17 03:28:48;;;;;;;;;;;8.20;99.90;;;;;;5070620;28;19928;-79
2023/04/17 03:31:14;;;;;;;;;;;8.20;99.90;;;;;;5078123;28;19931;-79
2023/04/17 03:33:39;;;;;;;;;;;8.20;99.90;;;;;;5094995;28;19924;-79
2023/04/17 03:36:05;;;;;;;;;;;8.20;99.90;;;;;;5062887;28;20384;-79
2023/04/17 03:38:31;;;;;;;;;;;8.20;99.90;;;;;;5077102;28;19929;-78
2023/04/17 03:40:57;;;;;;;;;;;8.20;99.90;;;;;;5062305;28;19974;-78
2023/04/17 03:43:23;;;;;;;;;;;8.20;99.90;;;;;;5060620;28;19929;-78
2023/04/17 03:45:48;;;;;;;;;;;8.20;99.90;;;;;;5093158;28;19929;-78
2023/04/17 03:48:14;;;;;;;;;;;8.20;99.90;;;;;;5076086;28;19940;-78
2023/04/17 03:50:39;;;;;;;;;;;8.20;99.90;;;;;;5065055;28;19933;-79
2023/04/17 03:53:05;;;;;;;;;;;8.20;99.90;;;;;;5076109;28;19928;-78
2023/04/17 03:55:30;;;;;;;;;;;8.20;99.90;;;;;;5075665;28;20035;-79
2023/04/17 03:57:56;;;;;;;;;;;8.20;99.90;;;;;;5076597;28;19924;-79
2023/04/17 04:00:22;;;;;;;;;;;8.20;99.90;;;;;;5077288;28;19936;-78
2023/04/17 04:02:47;;;;;;;;;;;8.20;99.90;;;;;;5069756;28;19988;-78
2023/04/17 04:05:13;;;;;;;;;;;8.30;99.90;;;;;;5069189;28;19943;-79
2023/04/17 04:07:39;;;;;;;;;;;8.20;99.90;;;;;;5076054;28;19928;-79
2023/04/17 04:10:05;;;;;;;;;;;8.20;99.90;;;;;;5060025;28;19935;-78
2023/04/17 04:12:30;;;;;;;;;;;8.20;99.90;;;;;;5074129;28;20019;-78
2023/04/17 04:14:56;;;;;;;;;;;8.20;99.90;;;;;;5080378;28;19924;-79
2023/04/17 04:17:22;;;;;;;;;;;8.20;99.90;;;;;;5048615;28;19924;-79
2023/04/17 04:19:47;;;;;;;;;;;8.20;99.90;;;;;;5068514;28;19951;-79
2023/04/17 04:22:13;;;;;;;;;;;8.20;99.90;;;;;;5075935;28;19925;-79
2023/04/17 04:24:39;;;;;;;;;;;8.20;99.90;;;;;;5060541;28;19925;-79
2023/04/17 04:27:05;;;;;;;;;;;8.20;99.90;;;;;;5086240;28;19944;-79
2023/04/17 04:29:31;;;;;;;;;;;8.20;99.90;;;;;;5075447;28;19991;-79
2023/04/17 04:31:57;;;;;;;;;;;8.20;99.90;;;;;;5095671;28;19985;-79
2023/04/17 04:34:24;;;;;;;;;;;8.20;99.90;;;;;;5045515;28;19978;-79
2023/04/17 04:36:50;;;;;;;;;;;8.20;99.90;;;;;;5076878;28;19968;-79
2023/04/17 04:39:19;;;;;;;;;;;8.20;99.90;;;;;;5094791;28;20291;-79
2023/04/17 04:41:45;;;;;;;;;;;8.20;99.90;;;;;;5074534;28;19932;-79
2023/04/17 04:44:11;;;;;;;;;;;8.10;99.90;;;;;;5075472;28;19983;-79
2023/04/17 04:46:36;;;;;;;;;;;8.10;99.90;;;;;;5092214;28;19954;-79
2023/04/17 04:49:02;;;;;;;;;;;8.10;99.90;;;;;;5059819;28;19924;-79
2023/04/17 04:51:29;;;;;;;;;;;8.10;99.90;;;;;;5072964;28;20430;-79
2023/04/17 04:53:54;;;;;;;;;;;8.10;99.90;;;;;;5075083;28;19928;-79
2023/04/17 04:56:20;;;;;;;;;;;8.10;99.90;;;;;;5076378;28;19951;-79
2023/04/17 04:58:46;;;;;;;;;;;8.10;99.90;;;;;;5060575;28;19984;-79
2023/04/17 05:01:11;;;;;;;;;;;8.00;99.90;;;;;;5076824;28;20427;-79
2023/04/17 05:03:37;;;;;;;;;;;8.00;99.90;;;;;;5075724;28;19924;-79
2023/04/17 05:06:03;;;;;;;;;;;8.00;99.90;;;;;;5060022;28;19925;-79
2023/04/17 05:08:28;;;;;;;;;;;8.00;99.90;;;;;;5059202;28;19925;-79
2023/04/17 05:10:54;;;;;;;;;;;8.00;99.90;;;;;;5076596;28;19939;-79
2023/04/17 05:13:19;;;;;;;;;;;8.00;99.90;;;;;;5077152;28;19924;-79
2023/04/17 05:15:45;;;;;;;;;;;8.00;99.90;;;;;;5093686;28;19925;-79
2023/04/17 05:18:10;;;;;;;;;;;8.00;99.90;;;;;;5064696;28;19924;-79
2023/04/17 05:20:36;;;;;;;;;;;8.00;99.90;;;;;;5051657;28;19936;-79
2023/04/17 05:23:02;;;;;;;;;;;8.00;99.90;;;;;;5076434;28;19931;-78
2023/04/17 05:25:27;;;;;;;;;;;8.00;99.90;;;;;;5059628;28;20307;-79
2023/04/17 05:27:53;;;;;;;;;;;8.00;99.90;;;;;;5046089;28;19975;-79
2023/04/17 05:30:19;;;;;;;;;;;8.10;99.90;;;;;;5039741;28;19925;-79
2023/04/17 05:32:45;;;;;;;;;;;8.10;99.90;;;;;;5093336;28;20558;-79
2023/04/17 05:35:10;;;;;;;;;;;8.00;99.90;;;;;;5091208;28;20466;-79
2023/04/17 05:37:36;;;;;;;;;;;8.10;99.90;;;;;;5091503;28;19942;-80
2023/04/17 05:40:05;;;;;;;;;;;8.10;99.90;;;;;;5092090;28;19969;-79
2023/04/17 05:42:31;;;;;;;;;;;8.10;99.90;;;;;;5074475;28;19928;-79
2023/04/17 05:44:56;;;;;;;;;;;8.10;99.90;;;;;;5092140;28;20059;-78
2023/04/17 05:47:22;;;;;;;;;;;8.10;99.90;;;;;;5074954;28;19924;-79
2023/04/17 05:49:50;;;;;;;;;;;8.10;99.90;;;;;;5077613;28;19952;-79
2023/04/17 05:52:15;;;;;;;;;;;8.10;99.90;;;;;;5059585;28;19929;-79
2023/04/17 05:54:41;;;;;;;;;;;8.10;99.90;;;;;;5091437;28;19928;-79
2023/04/17 05:57:06;;;;;;;;;;;8.20;99.90;;;;;;5073272;28;19947;-78
2023/04/17 05:59:32;;;;;;;;;;;8.20;99.90;;;;;;5076760;28;19931;-79
2023/04/17 06:01:58;;;;;;;;;;;8.20;99.90;;;;;;5042998;28;19929;-78
2023/04/17 06:04:24;;;;;;;;;;;8.20;99.90;;;;;;5085172;28;19929;-79
2023/04/17 06:06:49;;;;;;;;;;;8.20;99.90;;;;;;5045339;28;19971;-79
2023/04/17 06:09:15;;;;;;;;;;;8.20;99.90;;;;;;5055959;28;19943;-79
2023/04/17 06:11:40;;;;;;;;;;;8.20;99.90;;;;;;5074399;28;19929;-78
2023/04/17 06:14:06;;;;;;;;;;;8.20;99.90;;;;;;5092505;28;19975;-79
2023/04/17 06:16:32;;;;;;;;;;;8.10;99.90;;;;;;5078734;28;19933;-79
2023/04/17 06:18:57;;;;;;;;;;;8.20;99.90;;;;;;5065966;28;19967;-78
2023/04/17 06:21:23;;;;;;;;;;;8.20;99.90;;;;;;5049608;28;19940;-79
2023/04/17 06:23:48;;;;;;;;;;;8.20;99.90;;;;;;5066241;28;19931;-79
2023/04/17 06:26:14;;;;;;;;;;;8.20;99.90;;;;;;5077411;28;19928;-79
2023/04/17 06:28:39;;;;;;;;;;;8.20;99.90;;;;;;5041123;28;19929;-79
2023/04/17 06:31:05;;;;;;;;;;;8.30;99.90;;;;;;5061592;28;20379;-79
2023/04/17 06:33:31;;;;;;;;;;;8.30;99.90;;;;;;5047910;28;20060;-79
2023/04/17 06:35:57;;;;;;;;;;;8.30;99.90;;;;;;5045803;28;19924;-79
2023/04/17 06:38:22;;;;;;;;;;;8.30;99.90;;;;;;5060150;28;19991;-79
2023/04/17 06:40:48;;;;;;;;;;;8.30;99.90;;;;;;5076796;28;20011;-79
2023/04/17 06:43:16;;;;;;;;;;;8.40;99.90;;;;;;5062546;28;19925;-79
2023/04/17 06:45:42;;;;;;;;;;;8.40;99.90;;;;;;5061114;28;19928;-79
2023/04/17 06:48:08;;;;;;;;;;;8.40;99.90;;;;;;5076459;28;20498;-79
2023/04/17 06:50:33;;;;;;;;;;;8.50;99.90;;;;;;5061717;28;19925;-79
2023/04/17 06:52:59;;;;;;;;;;;8.50;99.90;;;;;;5094612;28;20395;-79
2023/04/17 06:55:25;;;;;;;;;;;8.60;99.90;;;;;;5078110;28;19994;-79
2023/04/17 06:57:51;;;;;;;;;;;8.70;99.90;;;;;;5071966;28;19924;-79
2023/04/17 07:00:16;;;;;;;;;;;8.70;99.90;;;;;;5062212;28;19931;-81
2023/04/17 07:02:42;;;;;;;;;;;8.70;99.90;;;;;;5077588;28;19929;-82
2023/04/17 07:05:08;;;;;;;;;;;8.80;99.90;;;;;;5088537;28;19962;-82
2023/04/17 07:07:34;;;;;;;;;;;8.80;99.90;;;;;;5075355;28;19924;-81
2023/04/17 07:10:00;;;;;;;;;;;8.90;99.90;;;;;;5095476;28;19925;-82
2023/04/17 07:12:26;;;;;;;;;;;8.80;99.90;;;;;;5068662;28;20252;-81
2023/04/17 07:14:51;;;;;;;;;;;8.90;99.90;;;;;;5077992;28;19963;-82
2023/04/17 07:17:17;;;;;;;;;;;9.00;99.90;;;;;;5063206;28;19932;-81
2023/04/17 07:19:43;;;;;;;;;;;8.90;99.90;;;;;;5062338;28;19931;-82
2023/04/17 07:22:08;;;;;;;;;;;9.00;99.90;;;;;;5079222;28;20265;-82
2023/04/17 07:24:34;;;;;;;;;;;9.10;99.90;;;;;;5076652;28;20011;-82
2023/04/17 07:27:01;;;;;;;;;;;9.10;99.90;;;;;;5093754;28;19925;-82
2023/04/17 07:29:27;;;;;;;;;;;9.10;99.90;;;;;;5060692;28;19929;-82
2023/04/17 07:31:52;;;;;;;;;;;9.20;99.90;;;;;;5061893;28;19929;-82
2023/04/17 07:34:18;;;;;;;;;;;9.20;99.90;;;;;;5074286;28;19960;-82
2023/04/17 07:36:44;;;;;;;;;;;9.30;99.90;;;;;;5076077;28;19928;-82
2023/04/17 07:39:10;;;;;;;;;;;9.40;99.90;;;;;;5076899;28;19951;-81
2023/04/17 07:41:35;;;;;;;;;;;9.50;99.90;;;;;;5076690;28;20307;-81
2023/04/17 07:44:04;;;;;;;;;;;9.50;99.90;;;;;;5077750;28;19935;-81
2023/04/17 07:46:31;;;;;;;;;;;9.60;99.90;;;;;;5060609;28;19928;-82
2023/04/17 07:48:57;;;;;;;;;;;9.70;99.90;;;;;;5079329;28;19929;-81
2023/04/17 07:51:22;;;;;;;;;;;9.70;99.90;;;;;;5094410;28;19925;-82
2023/04/17 07:53:48;;;;;;;;;;;9.80;99.90;;;;;;5076310;28;20730;-81
2023/04/17 07:56:13;;;;;;;;;;;10.00;99.90;;;;;;5076197;28;19991;-82
2023/04/17 07:58:39;;;;;;;;;;;10.20;99.90;;;;;;5078957;28;19932;-82
2023/04/17 08:01:05;;;;;;;;;;;10.30;99.90;;;;;;5077517;28;19935;-83
2023/04/17 08:03:30;;;;;;;;;;;10.50;99.90;;;;;;5076403;28;19924;-83
2023/04/17 08:05:56;;;;;;;;;;;10.70;99.90;;;;;;5094994;28;19924;-83
2023/04/17 08:08:22;;;;;;;;;;;10.70;99.90;;;;;;5064634;28;19978;-83
2023/04/17 08:10:48;;;;;;;;;;;10.80;99.90;;;;;;5073878;28;19932;-82
2023/04/17 08:13:14;;;;;;;;;;;10.80;99.90;;;;;;5073535;28;19928;-81
2023/04/17 08:15:39;;;;;;;;;;;10.90;99.90;;;;;;5089615;28;20058;-82
2023/04/17 08:18:06;;;;;;;;;;;11.00;99.90;;;;;;5040458;28;19928;-82
2023/04/17 08:20:32;;;;;;;;;;;11.10;99.90;;;;;;5088443;28;20391;-83
2023/04/17 08:22:58;;;;;;;;;;;11.20;99.90;;;;;;5081666;28;19928;-82
2023/04/17 08:25:24;;;;;;;;;;;11.30;99.90;;;;;;5059491;28;20399;-82
2023/04/17 08:27:50;;;;;;;;;;;11.30;99.90;;;;;;5075202;28;19950;-81
2023/04/17 08:30:16;;;;;;;;;;;11.40;99.90;;;;;;5075758;28;19928;-82
2023/04/17 08:32:43;;;;;;;;;;;11.50;99.90;;;;;;5082999;28;19928;-83
2023/04/17 08:35:12;;;;;;;;;;;11.40;99.90;;;;;;5042730;28;20001;-83
2023/04/17 08:37:43;;;;;;;;;;;11.60;99.90;;;;;;5059702;28;19924;-83
2023/04/17 08:40:09;;;;;;;;;;;11.90;99.90;;;;;;5074985;28;19939;-83
2023/04/17 08:42:36;;;;;;;;;;;12.10;99.90;;;;;;5091462;28;19928;-83
2023/04/17 08:45:06;;;;;;;;;;;12.20;99.90;;;;;;5040278;28;19932;-83
2023/04/17 08:47:33;;;;;;;;;;;12.20;99.90;;;;;;5055591;28;19924;-82
2023/04/17 08:50:00;;;;;;;;;;;12.20;99.90;;;;;;5086278;28;20471;-83
2023/04/17 08:52:26;;;;;;;;;;;12.10;99.90;;;;;;5059569;28;19925;-83
2023/04/17 08:54:51;;;;;;;;;;;12.30;99.90;;;;;;5062112;28;20462;-83
2023/04/17 08:57:17;;;;;;;;;;;12.40;99.90;;;;;;5088415;28;19924;-83
2023/04/17 08:59:44;;;;;;;;;;;12.70;99.90;;;;;;5063044;28;19982;-83
2023/04/17 09:02:10;;;;;;;;;;;13.20;99.90;;;;;;5074221;28;19924;-82
2023/04/17 09:04:40;;;;;;;;;;;13.70;99.90;;;;;;5060875;28;20433;-83
2023/04/17 09:07:07;;;;;;;;;;;14.20;99.90;;;;;;5072925;28;19988;-84
2023/04/17 09:09:45;;;;;;;;;;;14.60;99.90;;;;;;5059974;28;19949;-83
2023/04/17 09:12:11;;;;;;;;;;;14.80;99.90;;;;;;5036898;28;20372;-84
2023/04/17 09:14:37;;;;;;;;;;;15.00;99.90;;;;;;5076789;28;19929;-82
2023/04/17 09:17:02;;;;;;;;;;;15.00;99.90;;;;;;5076672;28;19924;-83
2023/04/17 09:19:28;;;;;;;;;;;15.00;99.90;;;;;;5083549;28;19939;-82
2023/04/17 09:21:54;;;;;;;;;;;15.00;99.90;;;;;;5073457;28;19968;-83
2023/04/17 09:24:33;;;;;;;;;;;14.90;99.90;;;;;;5089322;28;19924;-83
2023/04/17 09:27:17;;;;;;;;;;;14.70;99.90;;;;;;5074416;28;19924;-84
2023/04/17 09:29:58;;;;;;;;;;;14.50;99.90;;;;;;5096271;28;19924;-83
2023/04/17 09:32:25;;;;;;;;;;;14.60;99.90;;;;;;5091111;28;19928;-83
2023/04/17 09:34:51;;;;;;;;;;;14.80;99.90;;;;;;5092092;28;20384;-83
2023/04/17 09:37:18;;;;;;;;;;;14.80;99.90;;;;;;5074653;28;19929;-83
2023/04/17 09:40:00;;;;;;;;;;;14.90;99.90;;;;;;5089879;28;19928;-83
2023/04/17 09:42:26;;;;;;;;;;;14.80;99.90;;;;;;5057753;28;19932;-84
2023/04/17 09:44:53;;;;;;;;;;;14.60;99.90;;;;;;5066570;28;19924;-86
2023/04/17 09:47:19;;;;;;;;;;;14.60;99.90;;;;;;5073879;28;19924;-84
2023/04/17 09:49:51;;;;;;;;;;;14.60;99.90;;;;;;5075565;28;19991;-83
2023/04/17 09:52:17;;;;;;;;;;;14.70;99.90;;;;;;5095133;28;19925;-82
2023/04/17 09:54:43;;;;;;;;;;;14.60;99.90;;;;;;5061104;28;19936;-81
2023/04/17 09:57:09;;;;;;;;;;;14.60;99.90;;;;;;5094454;28;19925;-81
2023/04/17 09:59:44;;;;;;;;;;;14.50;99.90;;;;;;5044160;28;19947;-82
2023/04/17 10:02:11;;;;;;;;;;;14.50;99.90;;;;;;5092848;28;19971;-83
2023/04/17 10:04:40;;;;;;;;;;;14.60;99.90;;;;;;5096233;28;19934;-83
2023/04/17 10:07:06;;;;;;;;;;;14.70;99.90;;;;;;5095190;28;20493;-82
2023/04/17 10:09:32;;;;;;;;;;;14.80;99.90;;;;;;5060894;28;19940;-82
2023/04/17 10:11:58;;;;;;;;;;;14.70;99.90;;;;;;5095337;28;19947;-81
2023/04/17 10:14:29;;;;;;;;;;;14.70;99.90;;;;;;5070888;28;19928;-82
2023/04/17 10:16:55;;;;;;;;;;;14.80;99.90;;;;;;5078638;28;19929;-82
2023/04/17 10:19:24;;;;;;;;;;;14.80;99.90;;;;;;5077403;28;20018;-82
2023/04/17 10:22:13;;;;;;;;;;;14.70;99.90;;;;;;5079213;28;19925;-82
2023/04/17 10:24:39;;;;;;;;;;;14.80;99.90;;;;;;5054659;28;19924;-82
2023/04/17 10:27:23;;;;;;;;;;;15.10;99.90;;;;;;5062186;28;19934;-82
2023/04/17 10:29:56;;;;;;;;;;;15.30;99.90;;;;;;5066779;28;19924;-82
2023/04/17 10:32:24;;;;;;;;;;;15.50;99.90;;;;;;5079728;28;19925;-81
2023/04/17 10:34:51;;;;;;;;;;;15.70;99.90;;;;;;5063498;28;19955;-81
2023/04/17 10:37:16;;;;;;;;;;;15.80;99.90;;;;;;5062861;28;20009;-81
2023/04/17 10:39:53;;;;;;;;;;;15.90;99.90;;;;;;5063155;28;20422;-81
2023/04/17 10:42:19;;;;;;;;;;;15.90;99.90;;;;;;5033761;28;19928;-83
2023/04/17 10:44:45;;;;;;;;;;;16.00;99.90;;;;;;5076341;28;19964;-81
2023/04/17 10:47:14;;;;;;;;;;;15.90;99.90;;;;;;5078584;28;20311;-82
2023/04/17 10:49:50;;;;;;;;;;;15.90;99.90;;;;;;5093406;28;19963;-81
2023/04/17 10:52:31;;;;;;;;;;;15.80;99.90;;;;;;5094190;28;19929;-81
2023/04/17 10:55:19;;;;;;;;;;;15.90;99.90;;;;;;5095654;28;19928;-82
2023/04/17 10:58:05;;;;;;;;;;;15.90;99.90;;;;;;5095142;28;19960;-82
2023/04/17 11:00:32;;;;;;;;;;;15.70;99.90;;;;;;5069360;28;19940;-82
2023/04/17 11:03:01;;;;;;;;;;;15.50;99.90;;;;;;5057466;28;19955;-82
2023/04/17 11:05:27;;;;;;;;;;;15.60;99.90;;;;;;5079257;28;19964;-82
2023/04/17 11:07:52;;;;;;;;;;;15.90;99.90;;;;;;5109240;28;19935;-82
2023/04/17 11:10:19;;;;;;;;;;;16.20;99.90;;;;;;5070622;28;19932;-82
2023/04/17 11:12:46;;;;;;;;;;;16.50;99.90;;;;;;5095551;28;19925;-81
2023/04/17 11:15:11;;;;;;;;;;;16.70;99.90;;;;;;5062270;28;19929;-82
2023/04/17 11:17:45;;;;;;;;;;;16.70;99.90;;;;;;5080633;28;19925;-81
2023/04/17 11:20:10;;;;;;;;;;;16.80;99.90;;;;;;5059834;28;19940;-81
2023/04/17 11:22:36;;;;;;;;;;;17.00;99.90;;;;;;5073520;28;19932;-81
2023/04/17 11:25:02;;;;;;;;;;;17.20;99.90;;;;;;5093828;28;19929;-81
2023/04/17 11:27:28;;;;;;;;;;;17.10;97.70;;;;;;5079113;28;19932;-82
2023/04/17 11:29:53;;;;;;;;;;;16.70;99.90;;;;;;5075921;28;19932;-82
2023/04/17 11:32:19;;;;;;;;;;;16.50;99.90;;;;;;5060935;28;19936;-82
2023/04/17 11:34:45;;;;;;;;;;;16.20;99.90;;;;;;5044829;28;19927;-82
2023/04/17 11:37:12;;;;;;;;;;;16.00;99.90;;;;;;5059641;28;19924;-80
2023/04/17 11:39:40;;;;;;;;;;;15.90;99.90;;;;;;5074820;28;20486;-82
2023/04/17 11:42:06;;;;;;;;;;;15.80;99.90;;;;;;5070207;28;19992;-81
2023/04/17 11:44:31;;;;;;;;;;;15.60;99.90;;;;;;5072351;28;20380;-81
2023/04/17 11:47:00;;;;;;;;;;;15.80;99.90;;;;;;5075029;28;19963;-81
2023/04/17 11:49:30;;;;;;;;;;;16.10;99.90;;;;;;5093968;28;19985;-81
2023/04/17 11:51:57;;;;;;;;;;;16.30;99.90;;;;;;5055460;28;20011;-81
2023/04/17 11:54:27;;;;;;;;;;;16.40;99.90;;;;;;5088040;28;19925;-80
2023/04/17 11:57:00;;;;;;;;;;;16.40;99.90;;;;;;5076442;28;20063;-80
2023/04/17 11:59:30;;;;;;;;;;;16.40;99.90;;;;;;5064524;28;19929;-81
2023/04/17 12:01:58;;;;;;;;;;;16.30;99.90;;;;;;5056749;28;19933;-81
2023/04/17 12:04:24;;;;;;;;;;;16.10;99.90;;;;;;5073363;28;19928;-81
2023/04/17 12:06:50;;;;;;;;;;;16.00;99.90;;;;;;5041332;28;20120;-81
2023/04/17 12:09:23;;;;;;;;;;;15.90;99.40;;;;;;5037205;28;19929;-81
2023/04/17 12:11:49;;;;;;;;;;;15.80;96.90;;;;;;5091749;28;19932;-82
2023/04/17 12:14:15;;;;;;;;;;;15.80;99.80;;;;;;5052425;28;19939;-74
2023/04/17 12:16:41;;;;;;;;;;;15.70;97.40;;;;;;5073119;28;19932;-74
2023/04/17 12:19:07;;;;;;;;;;;15.70;99.30;;;;;;5076862;28;19935;-75
2023/04/17 12:21:32;;;;;;;;;;;15.70;99.90;;;;;;5092735;28;20324;-74
2023/04/17 12:23:58;;;;;;;;;;;15.80;99.90;;;;;;5093958;28;19924;-74
2023/04/17 12:26:27;;;;;;;;;;;15.90;99.90;;;;;;5077869;28;19924;-74
2023/04/17 12:28:55;;;;;;;;;;;15.90;99.90;;;;;;5086606;28;19933;-82
2023/04/17 12:31:20;;;;;;;;;;;16.20;99.90;;;;;;5072234;28;19932;-82
2023/04/17 12:33:46;;;;;;;;;;;16.50;99.90;;;;;;5078470;28;19929;-83
2023/04/17 12:36:12;;;;;;;;;;;16.90;97.30;;;;;;5071038;28;20006;-83
2023/04/17 12:38:37;;;;;;;;;;;17.00;99.70;;;;;;5039604;28;19931;-83
2023/04/17 12:41:03;;;;;;;;;;;17.20;99.70;;;;;;5091172;28;19924;-83
2023/04/17 12:43:30;;;;;;;;;;;17.40;99.90;;;;;;5075424;28;19936;-82
2023/04/17 12:45:57;;;;;;;;;;;17.50;99.90;;;;;;5084802;28;19955;-83
2023/04/17 12:48:22;;;;;;;;;;;17.40;98.40;;;;;;5040574;28;19928;-83
2023/04/17 12:50:48;;;;;;;;;;;17.20;99.90;;;;;;5052933;28;19938;-83
2023/04/17 12:53:14;;;;;;;;;;;17.00;98.10;;;;;;5046756;28;19924;-83
2023/04/17 12:55:40;;;;;;;;;;;16.70;97.90;;;;;;5083275;28;19936;-80
2023/04/17 12:58:06;;;;;;;;;;;16.30;95.00;;;;;;5084660;28;19929;-82
2023/04/17 13:00:32;;;;;;;;;;;16.00;96.40;;;;;;5077548;28;19974;-80
2023/04/17 13:02:58;;;;;;;;;;;15.80;97.40;;;;;;5092596;28;19928;-81
2023/04/17 13:05:24;;;;;;;;;;;15.50;98.10;;;;;;5093561;28;19939;-80
2023/04/17 13:07:49;;;;;;;;;;;15.30;99.10;;;;;;5076414;28;19978;-80
2023/04/17 13:10:15;;;;;;;;;;;15.40;99.60;;;;;;5077179;28;19928;-80
2023/04/17 13:12:41;;;;;;;;;;;15.70;99.90;;;;;;5076177;28;19924;-80
2023/04/17 13:15:07;;;;;;;;;;;15.90;99.50;;;;;;5076964;28;19928;-80
2023/04/17 13:17:32;;;;;;;;;;;16.30;96.40;;;;;;5077421;28;19967;-81
2023/04/17 13:19:58;;;;;;;;;;;16.50;96.00;;;;;;5093219;28;20027;-80
2023/04/17 13:22:23;;;;;;;;;;;16.60;97.10;;;;;;5078873;28;20343;-80
2023/04/17 13:24:49;;;;;;;;;;;16.40;95.20;;;;;;5045443;28;19947;-80
2023/04/17 13:27:15;;;;;;;;;;;16.40;94.70;;;;;;5077170;28;19928;-80
2023/04/17 13:29:41;;;;;;;;;;;16.30;96.90;;;;;;5076205;28;19928;-80
2023/04/17 13:32:07;;;;;;;;;;;16.20;92.00;;;;;;5076062;28;19931;-80
2023/04/17 13:34:32;;;;;;;;;;;16.30;95.30;;;;;;5076632;28;20002;-80
2023/04/17 13:36:58;;;;;;;;;;;16.50;92.80;;;;;;5076258;28;19935;-80
2023/04/17 13:39:23;;;;;;;;;;;16.80;94.10;;;;;;5076751;28;19924;-80
2023/04/17 13:41:49;;;;;;;;;;;16.90;93.60;;;;;;5059607;28;19925;-80
2023/04/17 13:44:16;;;;;;;;;;;16.90;91.40;;;;;;5075875;28;19928;-85
2023/04/17 13:46:42;;;;;;;;;;;16.70;91.60;;;;;;5063217;28;19978;-84
2023/04/17 13:49:08;;;;;;;;;;;16.60;92.10;;;;;;5090876;28;19981;-80
2023/04/17 13:51:34;;;;;;;;;;;16.60;93.80;;;;;;5091594;28;19940;-80
2023/04/17 13:53:59;;;;;;;;;;;16.80;94.00;;;;;;5057578;28;20415;-80
2023/04/17 13:56:26;;;;;;;;;;;16.90;93.80;;;;;;5091016;28;19986;-81
2023/04/17 13:58:51;;;;;;;;;;;17.00;92.90;;;;;;5090513;28;20367;-81
2023/04/17 14:01:17;;;;;;;;;;;17.20;92.00;;;;;;5074276;28;20427;-81
2023/04/17 14:03:43;;;;;;;;;;;17.30;91.90;;;;;;5038326;28;20376;-81
2023/04/17 14:06:09;;;;;;;;;;;17.30;89.20;;;;;;5090914;28;20397;-80
2023/04/17 14:08:34;;;;;;;;;;;17.10;90.10;;;;;;5075104;28;19964;-80
2023/04/17 14:11:00;;;;;;;;;;;16.90;90.00;;;;;;5061995;28;19932;-81
2023/04/17 14:13:25;;;;;;;;;;;16.50;89.20;;;;;;5093634;28;19933;-81
2023/04/17 14:15:52;;;;;;;;;;;16.50;91.40;;;;;;5076779;28;20443;-81
2023/04/17 14:18:18;;;;;;;;;;;16.60;90.90;;;;;;5088025;28;19928;-80
2023/04/17 14:20:43;;;;;;;;;;;16.60;85.90;;;;;;5050764;28;19928;-80